sensor_id;sensor_type;location;lat;lon;timestamp;P1;durP1;ratioP1;P2;durP2;ratioP2
38785;SDS011;24535;45.508;12.252;2022-09-23T00:01:54;7.75;;;4.97;;
38785;SDS011;24535;45.508;12.252;2022-09-23T00:04:19;4.78;;;4.38;;
38785;SDS011;24535;45.508;12.252;2022-09-23T00:06:45;7.47;;;5.47;;
38785;SDS011;24535;45.508;12.252;2022-09-23T00:09:10;5.60;;;4.60;;
38785;SDS011;24535;45.508;12.252;2022-09-23T00:11:36;5.20;;;4.32;;
38785;SDS011;24535;45.508;12.252;2022-09-23T00:14:02;7.97;;;5.80;;
38785;SDS011;24535;45.508;12.252;2022-09-23T00:16:29;6.53;;;5.82;;
38785;SDS011;24535;45.508;12.252;2022-09-23T00:21:24;6.13;;;4.40;;
38785;SDS011;24535;45.508;12.252;2022-09-23T00:23:51;11.35;;;5.90;;
38785;SDS011;24535;45.508;12.252;2022-09-23T00:26:18;7.97;;;5.80;;
38785;SDS011;24535;45.508;12.252;2022-09-23T00:28:46;6.93;;;6.25;;
38785;SDS011;24535;45.508;12.252;2022-09-23T00:31:17;8.00;;;6.93;;
38785;SDS011;24535;45.508;12.252;2022-09-23T00:33:44;9.52;;;7.00;;
38785;SDS011;24535;45.508;12.252;2022-09-23T00:36:11;10.27;;;7.07;;
38785;SDS011;24535;45.508;12.252;2022-09-23T00:38:39;9.07;;;6.38;;
38785;SDS011;24535;45.508;12.252;2022-09-23T00:41:05;8.45;;;7.00;;
38785;SDS011;24535;45.508;12.252;2022-09-23T00:43:39;7.88;;;6.35;;
38785;SDS011;24535;45.508;12.252;2022-09-23T00:46:08;9.57;;;7.47;;
38785;SDS011;24535;45.508;12.252;2022-09-23T00:48:37;8.32;;;6.82;;
38785;SDS011;24535;45.508;12.252;2022-09-23T00:51:05;8.90;;;7.55;;
38785;SDS011;24535;45.508;12.252;2022-09-23T00:53:33;10.18;;;7.57;;
38785;SDS011;24535;45.508;12.252;2022-09-23T00:56:01;7.53;;;6.80;;
38785;SDS011;24535;45.508;12.252;2022-09-23T01:01:15;8.70;;;6.50;;
38785;SDS011;24535;45.508;12.252;2022-09-23T01:03:42;7.18;;;6.47;;
38785;SDS011;24535;45.508;12.252;2022-09-23T01:46:56;8.90;;;6.50;;
38785;SDS011;24535;45.508;12.252;2022-09-23T01:49:34;10.07;;;6.15;;
38785;SDS011;24535;45.508;12.252;2022-09-23T01:55:07;8.50;;;6.10;;
38785;SDS011;24535;45.508;12.252;2022-09-23T01:57:41;7.85;;;6.97;;
38785;SDS011;24535;45.508;12.252;2022-09-23T02:00:15;7.00;;;6.30;;
38785;SDS011;24535;45.508;12.252;2022-09-23T02:02:47;8.10;;;7.10;;
38785;SDS011;24535;45.508;12.252;2022-09-23T02:12:22;8.13;;;7.07;;
38785;SDS011;24535;45.508;12.252;2022-09-23T02:15:02;9.23;;;6.65;;
38785;SDS011;24535;45.508;12.252;2022-09-23T02:20:13;7.53;;;6.72;;
38785;SDS011;24535;45.508;12.252;2022-09-23T02:22:53;11.13;;;6.93;;
38785;SDS011;24535;45.508;12.252;2022-09-23T02:26:28;7.70;;;6.20;;
38785;SDS011;24535;45.508;12.252;2022-09-23T02:34:29;8.15;;;6.22;;
38785;SDS011;24535;45.508;12.252;2022-09-23T02:46:51;6.07;;;4.85;;
38785;SDS011;24535;45.508;12.252;2022-09-23T02:49:21;7.75;;;5.28;;
38785;SDS011;24535;45.508;12.252;2022-09-23T02:54:43;7.55;;;5.30;;
38785;SDS011;24535;45.508;12.252;2022-09-23T03:03:48;6.63;;;5.10;;
38785;SDS011;24535;45.508;12.252;2022-09-23T03:09:07;6.03;;;5.50;;
38785;SDS011;24535;45.508;12.252;2022-09-23T03:11:37;5.40;;;4.03;;
38785;SDS011;24535;45.508;12.252;2022-09-23T03:20:23;6.83;;;5.10;;
38785;SDS011;24535;45.508;12.252;2022-09-23T03:30:34;4.97;;;3.83;;
38785;SDS011;24535;45.508;12.252;2022-09-23T03:33:01;5.00;;;2.88;;
38785;SDS011;24535;45.508;12.252;2022-09-23T03:44:51;9.38;;;4.25;;
38785;SDS011;24535;45.508;12.252;2022-09-23T03:47:19;4.90;;;3.92;;
38785;SDS011;24535;45.508;12.252;2022-09-23T03:49:57;7.25;;;4.72;;
38785;SDS011;24535;45.508;12.252;2022-09-23T03:52:23;6.95;;;4.18;;
38785;SDS011;24535;45.508;12.252;2022-09-23T03:54:49;4.60;;;3.65;;
38785;SDS011;24535;45.508;12.252;2022-09-23T03:57:16;5.65;;;3.80;;
38785;SDS011;24535;45.508;12.252;2022-09-23T04:02:11;5.10;;;4.00;;
38785;SDS011;24535;45.508;12.252;2022-09-23T04:04:37;4.75;;;3.60;;
38785;SDS011;24535;45.508;12.252;2022-09-23T04:07:06;3.85;;;3.17;;
38785;SDS011;24535;45.508;12.252;2022-09-23T04:09:31;6.07;;;4.03;;
38785;SDS011;24535;45.508;12.252;2022-09-23T04:11:57;4.75;;;3.63;;
38785;SDS011;24535;45.508;12.252;2022-09-23T04:14:22;5.38;;;4.30;;
38785;SDS011;24535;45.508;12.252;2022-09-23T04:16:49;5.60;;;4.20;;
38785;SDS011;24535;45.508;12.252;2022-09-23T04:19:15;4.90;;;4.10;;
38785;SDS011;24535;45.508;12.252;2022-09-23T04:21:41;5.03;;;4.00;;
38785;SDS011;24535;45.508;12.252;2022-09-23T04:24:08;5.65;;;3.97;;
38785;SDS011;24535;45.508;12.252;2022-09-23T04:26:34;4.95;;;3.63;;
38785;SDS011;24535;45.508;12.252;2022-09-23T04:29:00;4.70;;;3.60;;
38785;SDS011;24535;45.508;12.252;2022-09-23T04:31:41;5.22;;;4.10;;
38785;SDS011;24535;45.508;12.252;2022-09-23T04:37:08;5.70;;;4.43;;
38785;SDS011;24535;45.508;12.252;2022-09-23T04:39:34;7.30;;;4.45;;
38785;SDS011;24535;45.508;12.252;2022-09-23T04:41:59;4.60;;;3.92;;
38785;SDS011;24535;45.508;12.252;2022-09-23T04:44:24;5.35;;;3.78;;
38785;SDS011;24535;45.508;12.252;2022-09-23T04:46:52;5.18;;;4.28;;
38785;SDS011;24535;45.508;12.252;2022-09-23T04:49:17;6.18;;;4.70;;
38785;SDS011;24535;45.508;12.252;2022-09-23T04:51:43;6.30;;;3.80;;
38785;SDS011;24535;45.508;12.252;2022-09-23T04:54:09;5.68;;;4.05;;
38785;SDS011;24535;45.508;12.252;2022-09-23T04:56:36;4.35;;;3.72;;
38785;SDS011;24535;45.508;12.252;2022-09-23T05:10:14;9.48;;;6.28;;
38785;SDS011;24535;45.508;12.252;2022-09-23T05:12:40;7.20;;;4.68;;
38785;SDS011;24535;45.508;12.252;2022-09-23T05:15:15;5.38;;;4.43;;
38785;SDS011;24535;45.508;12.252;2022-09-23T05:17:41;5.85;;;4.38;;
38785;SDS011;24535;45.508;12.252;2022-09-23T05:20:07;6.05;;;4.90;;
38785;SDS011;24535;45.508;12.252;2022-09-23T05:22:34;7.05;;;4.90;;
38785;SDS011;24535;45.508;12.252;2022-09-23T05:27:53;7.03;;;4.45;;
38785;SDS011;24535;45.508;12.252;2022-09-23T05:32:44;5.25;;;4.75;;
38785;SDS011;24535;45.508;12.252;2022-09-23T05:38:31;8.82;;;4.70;;
38785;SDS011;24535;45.508;12.252;2022-09-23T05:41:00;7.47;;;4.45;;
38785;SDS011;24535;45.508;12.252;2022-09-23T05:43:43;8.20;;;4.32;;
38785;SDS011;24535;45.508;12.252;2022-09-23T05:46:10;6.85;;;4.55;;
38785;SDS011;24535;45.508;12.252;2022-09-23T05:48:37;9.77;;;3.92;;
38785;SDS011;24535;45.508;12.252;2022-09-23T05:51:25;6.05;;;4.38;;
38785;SDS011;24535;45.508;12.252;2022-09-23T05:54:00;4.93;;;3.45;;
38785;SDS011;24535;45.508;12.252;2022-09-23T05:56:44;5.07;;;3.60;;
38785;SDS011;24535;45.508;12.252;2022-09-23T05:59:10;4.80;;;3.75;;
38785;SDS011;24535;45.508;12.252;2022-09-23T06:04:42;5.20;;;3.92;;
38785;SDS011;24535;45.508;12.252;2022-09-23T06:07:19;9.93;;;4.80;;
38785;SDS011;24535;45.508;12.252;2022-09-23T06:09:44;7.47;;;4.15;;
38785;SDS011;24535;45.508;12.252;2022-09-23T06:12:10;3.95;;;3.28;;
38785;SDS011;24535;45.508;12.252;2022-09-23T06:14:38;5.88;;;3.95;;
38785;SDS011;24535;45.508;12.252;2022-09-23T06:17:20;6.65;;;4.65;;
38785;SDS011;24535;45.508;12.252;2022-09-23T06:19:46;7.72;;;4.72;;
38785;SDS011;24535;45.508;12.252;2022-09-23T06:35:18;4.43;;;3.15;;
38785;SDS011;24535;45.508;12.252;2022-09-23T06:37:45;7.03;;;3.78;;
38785;SDS011;24535;45.508;12.252;2022-09-23T06:42:36;7.40;;;3.28;;
38785;SDS011;24535;45.508;12.252;2022-09-23T07:10:42;3.67;;;2.50;;
38785;SDS011;24535;45.508;12.252;2022-09-23T07:26:12;3.25;;;1.67;;
38785;SDS011;24535;45.508;12.252;2022-09-23T07:28:39;2.10;;;1.70;;
38785;SDS011;24535;45.508;12.252;2022-09-23T07:34:01;7.78;;;2.63;;
38785;SDS011;24535;45.508;12.252;2022-09-23T07:39:49;2.03;;;1.83;;
38785;SDS011;24535;45.508;12.252;2022-09-23T07:42:15;6.18;;;2.20;;
38785;SDS011;24535;45.508;12.252;2022-09-23T07:47:28;6.82;;;2.17;;
38785;SDS011;24535;45.508;12.252;2022-09-23T07:49:53;3.75;;;2.40;;
38785;SDS011;24535;45.508;12.252;2022-09-23T07:52:19;6.32;;;2.53;;
38785;SDS011;24535;45.508;12.252;2022-09-23T07:58:14;2.10;;;1.83;;
38785;SDS011;24535;45.508;12.252;2022-09-23T08:00:39;5.22;;;2.28;;
38785;SDS011;24535;45.508;12.252;2022-09-23T08:03:05;5.07;;;2.55;;
38785;SDS011;24535;45.508;12.252;2022-09-23T08:05:30;4.43;;;2.67;;
38785;SDS011;24535;45.508;12.252;2022-09-23T08:07:56;3.00;;;2.40;;
38785;SDS011;24535;45.508;12.252;2022-09-23T08:10:21;4.72;;;2.10;;
38785;SDS011;24535;45.508;12.252;2022-09-23T08:12:47;4.88;;;2.10;;
38785;SDS011;24535;45.508;12.252;2022-09-23T08:15:12;6.25;;;1.88;;
38785;SDS011;24535;45.508;12.252;2022-09-23T08:17:38;6.10;;;2.70;;
38785;SDS011;24535;45.508;12.252;2022-09-23T08:41:15;3.22;;;1.65;;
38785;SDS011;24535;45.508;12.252;2022-09-23T09:05:16;1.83;;;1.20;;
38785;SDS011;24535;45.508;12.252;2022-09-23T09:17:14;3.50;;;1.70;;
38785;SDS011;24535;45.508;12.252;2022-09-23T09:39:44;3.00;;;1.08;;
38785;SDS011;24535;45.508;12.252;2022-09-23T09:42:12;4.95;;;0.98;;
38785;SDS011;24535;45.508;12.252;2022-09-23T09:44:51;1.33;;;0.90;;
38785;SDS011;24535;45.508;12.252;2022-09-23T09:50:52;1.52;;;0.80;;
38785;SDS011;24535;45.508;12.252;2022-09-23T09:56:33;1.88;;;1.08;;
38785;SDS011;24535;45.508;12.252;2022-09-23T09:59:04;1.10;;;0.50;;
38785;SDS011;24535;45.508;12.252;2022-09-23T10:07:35;1.67;;;0.77;;
38785;SDS011;24535;45.508;12.252;2022-09-23T10:10:16;3.05;;;1.17;;
38785;SDS011;24535;45.508;12.252;2022-09-23T10:15:45;1.88;;;1.20;;
38785;SDS011;24535;45.508;12.252;2022-09-23T10:18:18;4.38;;;0.90;;
38785;SDS011;24535;45.508;12.252;2022-09-23T10:21:23;2.25;;;1.48;;
38785;SDS011;24535;45.508;12.252;2022-09-23T10:26:50;3.75;;;1.52;;
38785;SDS011;24535;45.508;12.252;2022-09-23T10:32:11;1.45;;;0.80;;
38785;SDS011;24535;45.508;12.252;2022-09-23T10:34:45;2.38;;;1.35;;
38785;SDS011;24535;45.508;12.252;2022-09-23T10:37:16;3.97;;;2.03;;
38785;SDS011;24535;45.508;12.252;2022-09-23T10:39:58;2.55;;;1.45;;
38785;SDS011;24535;45.508;12.252;2022-09-23T10:42:46;3.83;;;1.77;;
38785;SDS011;24535;45.508;12.252;2022-09-23T10:45:37;1.70;;;1.33;;
38785;SDS011;24535;45.508;12.252;2022-09-23T10:56:56;1.45;;;1.20;;
38785;SDS011;24535;45.508;12.252;2022-09-23T11:30:33;2.45;;;1.42;;
38785;SDS011;24535;45.508;12.252;2022-09-23T11:37:00;1.67;;;0.95;;
38785;SDS011;24535;45.508;12.252;2022-09-23T11:39:34;1.90;;;0.90;;
38785;SDS011;24535;45.508;12.252;2022-09-23T11:43:00;1.83;;;0.73;;
38785;SDS011;24535;45.508;12.252;2022-09-23T11:45:36;3.10;;;1.13;;
38785;SDS011;24535;45.508;12.252;2022-09-23T11:48:14;1.15;;;1.05;;
38785;SDS011;24535;45.508;12.252;2022-09-23T11:56:44;1.90;;;1.25;;
38785;SDS011;24535;45.508;12.252;2022-09-23T12:05:02;1.58;;;0.90;;
38785;SDS011;24535;45.508;12.252;2022-09-23T12:07:52;1.48;;;0.75;;
38785;SDS011;24535;45.508;12.252;2022-09-23T12:13:51;1.30;;;0.85;;
38785;SDS011;24535;45.508;12.252;2022-09-23T12:19:23;1.45;;;1.00;;
38785;SDS011;24535;45.508;12.252;2022-09-23T12:24:48;2.45;;;1.20;;
38785;SDS011;24535;45.508;12.252;2022-09-23T12:27:40;3.15;;;0.90;;
38785;SDS011;24535;45.508;12.252;2022-09-23T12:30:14;1.23;;;0.70;;
38785;SDS011;24535;45.508;12.252;2022-09-23T12:33:26;1.98;;;1.45;;
38785;SDS011;24535;45.508;12.252;2022-09-23T12:39:28;1.58;;;0.80;;
38785;SDS011;24535;45.508;12.252;2022-09-23T12:44:47;1.42;;;1.02;;
38785;SDS011;24535;45.508;12.252;2022-09-23T12:50:00;2.80;;;0.88;;
38785;SDS011;24535;45.508;12.252;2022-09-23T12:52:27;1.27;;;0.80;;
38785;SDS011;24535;45.508;12.252;2022-09-23T12:54:56;4.85;;;1.17;;
38785;SDS011;24535;45.508;12.252;2022-09-23T12:57:43;3.50;;;1.05;;
38785;SDS011;24535;45.508;12.252;2022-09-23T13:02:54;1.67;;;1.00;;
38785;SDS011;24535;45.508;12.252;2022-09-23T13:05:45;2.63;;;1.15;;
38785;SDS011;24535;45.508;12.252;2022-09-23T13:14:53;2.78;;;1.10;;
38785;SDS011;24535;45.508;12.252;2022-09-23T13:20:47;1.45;;;1.00;;
38785;SDS011;24535;45.508;12.252;2022-09-23T13:26:42;2.10;;;1.05;;
38785;SDS011;24535;45.508;12.252;2022-09-23T13:29:30;1.65;;;1.00;;
38785;SDS011;24535;45.508;12.252;2022-09-23T13:34:45;2.92;;;1.60;;
38785;SDS011;24535;45.508;12.252;2022-09-23T13:37:21;1.17;;;0.80;;
38785;SDS011;24535;45.508;12.252;2022-09-23T13:48:25;1.42;;;1.05;;
38785;SDS011;24535;45.508;12.252;2022-09-23T13:50:52;1.95;;;1.10;;
38785;SDS011;24535;45.508;12.252;2022-09-23T14:02:50;0.75;;;0.60;;
38785;SDS011;24535;45.508;12.252;2022-09-23T14:05:23;1.38;;;0.77;;
38785;SDS011;24535;45.508;12.252;2022-09-23T14:08:06;1.40;;;0.80;;
38785;SDS011;24535;45.508;12.252;2022-09-23T14:10:32;1.90;;;0.85;;
38785;SDS011;24535;45.508;12.252;2022-09-23T14:12:57;2.15;;;1.35;;
38785;SDS011;24535;45.508;12.252;2022-09-23T14:15:23;2.85;;;0.90;;
38785;SDS011;24535;45.508;12.252;2022-09-23T14:17:51;2.35;;;0.77;;
38785;SDS011;24535;45.508;12.252;2022-09-23T14:23:31;1.40;;;0.70;;
38785;SDS011;24535;45.508;12.252;2022-09-23T14:25:57;2.28;;;1.33;;
38785;SDS011;24535;45.508;12.252;2022-09-23T14:31:00;2.58;;;1.27;;
38785;SDS011;24535;45.508;12.252;2022-09-23T14:39:28;5.78;;;1.20;;
38785;SDS011;24535;45.508;12.252;2022-09-23T14:48:32;2.20;;;1.10;;
38785;SDS011;24535;45.508;12.252;2022-09-23T14:51:00;3.40;;;1.38;;
38785;SDS011;24535;45.508;12.252;2022-09-23T14:53:35;2.20;;;1.17;;
38785;SDS011;24535;45.508;12.252;2022-09-23T14:59:23;2.13;;;0.70;;
38785;SDS011;24535;45.508;12.252;2022-09-23T15:01:58;3.45;;;1.33;;
38785;SDS011;24535;45.508;12.252;2022-09-23T15:06:54;1.15;;;1.00;;
38785;SDS011;24535;45.508;12.252;2022-09-23T15:11:47;1.45;;;0.80;;
38785;SDS011;24535;45.508;12.252;2022-09-23T15:14:15;5.05;;;1.45;;
38785;SDS011;24535;45.508;12.252;2022-09-23T15:19:59;1.08;;;0.77;;
38785;SDS011;24535;45.508;12.252;2022-09-23T15:22:44;3.25;;;0.93;;
38785;SDS011;24535;45.508;12.252;2022-09-23T15:28:34;1.52;;;0.98;;
38785;SDS011;24535;45.508;12.252;2022-09-23T15:34:34;2.38;;;1.15;;
38785;SDS011;24535;45.508;12.252;2022-09-23T15:37:00;3.17;;;1.30;;
38785;SDS011;24535;45.508;12.252;2022-09-23T15:39:25;1.27;;;1.02;;
38785;SDS011;24535;45.508;12.252;2022-09-23T15:41:51;1.30;;;0.90;;
38785;SDS011;24535;45.508;12.252;2022-09-23T15:44:17;3.33;;;0.90;;
38785;SDS011;24535;45.508;12.252;2022-09-23T15:46:46;1.73;;;1.30;;
38785;SDS011;24535;45.508;12.252;2022-09-23T15:49:26;3.15;;;0.93;;
38785;SDS011;24535;45.508;12.252;2022-09-23T15:55:17;4.15;;;1.17;;
38785;SDS011;24535;45.508;12.252;2022-09-23T15:57:47;8.73;;;1.30;;
38785;SDS011;24535;45.508;12.252;2022-09-23T16:03:27;1.63;;;1.17;;
38785;SDS011;24535;45.508;12.252;2022-09-23T16:05:53;3.53;;;0.80;;
38785;SDS011;24535;45.508;12.252;2022-09-23T16:11:29;1.08;;;0.60;;
38785;SDS011;24535;45.508;12.252;2022-09-23T16:13:56;2.10;;;0.85;;
38785;SDS011;24535;45.508;12.252;2022-09-23T16:24:45;1.35;;;0.75;;
38785;SDS011;24535;45.508;12.252;2022-09-23T16:27:11;3.72;;;1.00;;
38785;SDS011;24535;45.508;12.252;2022-09-23T16:29:42;1.50;;;1.00;;
38785;SDS011;24535;45.508;12.252;2022-09-23T16:32:07;2.83;;;1.23;;
38785;SDS011;24535;45.508;12.252;2022-09-23T16:34:33;2.85;;;1.17;;
38785;SDS011;24535;45.508;12.252;2022-09-23T16:36:59;7.00;;;1.23;;
38785;SDS011;24535;45.508;12.252;2022-09-23T16:42:49;4.18;;;1.23;;
38785;SDS011;24535;45.508;12.252;2022-09-23T16:45:17;1.90;;;1.23;;
38785;SDS011;24535;45.508;12.252;2022-09-23T16:47:47;1.30;;;0.80;;
38785;SDS011;24535;45.508;12.252;2022-09-23T16:50:50;1.55;;;0.90;;
38785;SDS011;24535;45.508;12.252;2022-09-23T16:56:26;2.17;;;1.27;;
38785;SDS011;24535;45.508;12.252;2022-09-23T17:01:57;1.40;;;1.30;;
38785;SDS011;24535;45.508;12.252;2022-09-23T17:04:40;1.73;;;0.93;;
38785;SDS011;24535;45.508;12.252;2022-09-23T17:09:44;2.63;;;1.20;;
38785;SDS011;24535;45.508;12.252;2022-09-23T17:14:41;1.00;;;0.90;;
38785;SDS011;24535;45.508;12.252;2022-09-23T17:23:20;1.38;;;0.95;;
38785;SDS011;24535;45.508;12.252;2022-09-23T17:32:20;1.45;;;0.93;;
38785;SDS011;24535;45.508;12.252;2022-09-23T17:37:29;1.35;;;1.00;;
38785;SDS011;24535;45.508;12.252;2022-09-23T17:39:56;3.58;;;1.35;;
38785;SDS011;24535;45.508;12.252;2022-09-23T17:42:27;1.83;;;1.13;;
38785;SDS011;24535;45.508;12.252;2022-09-23T17:44:53;2.42;;;1.20;;
38785;SDS011;24535;45.508;12.252;2022-09-23T17:50:28;1.40;;;1.05;;
38785;SDS011;24535;45.508;12.252;2022-09-23T17:53:07;1.85;;;1.30;;
38785;SDS011;24535;45.508;12.252;2022-09-23T17:55:32;1.75;;;1.40;;
38785;SDS011;24535;45.508;12.252;2022-09-23T17:58:04;2.80;;;0.88;;
38785;SDS011;24535;45.508;12.252;2022-09-23T18:00:29;2.40;;;1.10;;
38785;SDS011;24535;45.508;12.252;2022-09-23T18:02:55;1.90;;;1.00;;
38785;SDS011;24535;45.508;12.252;2022-09-23T18:14:28;2.40;;;1.23;;
38785;SDS011;24535;45.508;12.252;2022-09-23T18:20:06;2.58;;;1.30;;
38785;SDS011;24535;45.508;12.252;2022-09-23T18:25:04;1.77;;;1.30;;
38785;SDS011;24535;45.508;12.252;2022-09-23T18:54:31;3.90;;;2.13;;
38785;SDS011;24535;45.508;12.252;2022-09-23T19:07:33;1.88;;;1.27;;
38785;SDS011;24535;45.508;12.252;2022-09-23T19:12:36;3.25;;;1.70;;
38785;SDS011;24535;45.508;12.252;2022-09-23T19:21:20;2.90;;;1.95;;
38785;SDS011;24535;45.508;12.252;2022-09-23T19:51:03;4.50;;;1.60;;
38785;SDS011;24535;45.508;12.252;2022-09-23T19:53:30;2.58;;;1.67;;
38785;SDS011;24535;45.508;12.252;2022-09-23T19:55:59;3.20;;;1.58;;
38785;SDS011;24535;45.508;12.252;2022-09-23T19:58:29;4.35;;;2.13;;
38785;SDS011;24535;45.508;12.252;2022-09-23T20:00:55;3.90;;;2.05;;
38785;SDS011;24535;45.508;12.252;2022-09-23T20:03:22;6.25;;;2.78;;
38785;SDS011;24535;45.508;12.252;2022-09-23T20:05:55;4.47;;;2.55;;
38785;SDS011;24535;45.508;12.252;2022-09-23T20:08:22;4.30;;;2.88;;
38785;SDS011;24535;45.508;12.252;2022-09-23T20:10:51;3.50;;;2.05;;
38785;SDS011;24535;45.508;12.252;2022-09-23T20:13:18;3.95;;;2.53;;
38785;SDS011;24535;45.508;12.252;2022-09-23T20:15:45;4.22;;;2.47;;
38785;SDS011;24535;45.508;12.252;2022-09-23T20:26:40;5.72;;;2.63;;
38785;SDS011;24535;45.508;12.252;2022-09-23T20:44:38;5.80;;;2.08;;
38785;SDS011;24535;45.508;12.252;2022-09-23T20:47:05;5.38;;;1.77;;
38785;SDS011;24535;45.508;12.252;2022-09-23T20:49:31;9.00;;;1.95;;
38785;SDS011;24535;45.508;12.252;2022-09-23T20:51:59;3.00;;;1.98;;
38785;SDS011;24535;45.508;12.252;2022-09-23T20:54:28;3.03;;;1.58;;
38785;SDS011;24535;45.508;12.252;2022-09-23T20:56:56;3.08;;;1.75;;
38785;SDS011;24535;45.508;12.252;2022-09-23T20:59:28;3.30;;;1.75;;
38785;SDS011;24535;45.508;12.252;2022-09-23T21:01:54;2.60;;;1.58;;
38785;SDS011;24535;45.508;12.252;2022-09-23T21:04:22;2.33;;;1.38;;
38785;SDS011;24535;45.508;12.252;2022-09-23T21:06:48;4.00;;;1.48;;
38785;SDS011;24535;45.508;12.252;2022-09-23T21:09:14;3.05;;;2.00;;
38785;SDS011;24535;45.508;12.252;2022-09-23T21:11:40;3.95;;;2.70;;
38785;SDS011;24535;45.508;12.252;2022-09-23T21:14:06;4.32;;;2.58;;
38785;SDS011;24535;45.508;12.252;2022-09-23T21:16:32;2.78;;;1.77;;
38785;SDS011;24535;45.508;12.252;2022-09-23T21:18:58;3.33;;;1.70;;
38785;SDS011;24535;45.508;12.252;2022-09-23T21:21:24;4.35;;;1.98;;
38785;SDS011;24535;45.508;12.252;2022-09-23T21:23:53;3.35;;;1.50;;
38785;SDS011;24535;45.508;12.252;2022-09-23T21:26:20;2.75;;;1.77;;
38785;SDS011;24535;45.508;12.252;2022-09-23T21:28:48;4.65;;;2.08;;
38785;SDS011;24535;45.508;12.252;2022-09-23T21:31:19;3.08;;;1.83;;
38785;SDS011;24535;45.508;12.252;2022-09-23T21:33:56;2.35;;;1.67;;
38785;SDS011;24535;45.508;12.252;2022-09-23T21:36:23;2.60;;;1.35;;
38785;SDS011;24535;45.508;12.252;2022-09-23T21:38:51;2.33;;;1.75;;
38785;SDS011;24535;45.508;12.252;2022-09-23T21:41:17;2.17;;;1.50;;
38785;SDS011;24535;45.508;12.252;2022-09-23T21:43:43;3.92;;;1.42;;
38785;SDS011;24535;45.508;12.252;2022-09-23T21:46:10;2.90;;;1.95;;
38785;SDS011;24535;45.508;12.252;2022-09-23T21:48:44;3.17;;;1.70;;
38785;SDS011;24535;45.508;12.252;2022-09-23T21:51:14;3.40;;;2.10;;
38785;SDS011;24535;45.508;12.252;2022-09-23T21:53:41;4.40;;;2.35;;
38785;SDS011;24535;45.508;12.252;2022-09-23T21:56:11;3.33;;;1.60;;
38785;SDS011;24535;45.508;12.252;2022-09-23T21:58:39;3.85;;;1.83;;
38785;SDS011;24535;45.508;12.252;2022-09-23T22:01:13;2.92;;;1.67;;
38785;SDS011;24535;45.508;12.252;2022-09-23T22:06:57;2.05;;;1.42;;
38785;SDS011;24535;45.508;12.252;2022-09-23T22:09:24;2.95;;;2.00;;
38785;SDS011;24535;45.508;12.252;2022-09-23T22:11:50;4.13;;;2.25;;
38785;SDS011;24535;45.508;12.252;2022-09-23T22:14:34;4.55;;;1.70;;
38785;SDS011;24535;45.508;12.252;2022-09-23T22:17:02;2.28;;;1.55;;
38785;SDS011;24535;45.508;12.252;2022-09-23T22:19:28;4.13;;;2.30;;
38785;SDS011;24535;45.508;12.252;2022-09-23T22:22:09;3.83;;;2.72;;
38785;SDS011;24535;45.508;12.252;2022-09-23T22:24:37;3.80;;;2.33;;
38785;SDS011;24535;45.508;12.252;2022-09-23T22:27:07;3.25;;;1.88;;
38785;SDS011;24535;45.508;12.252;2022-09-23T22:29:36;5.28;;;2.70;;
38785;SDS011;24535;45.508;12.252;2022-09-23T22:32:26;3.92;;;3.13;;
38785;SDS011;24535;45.508;12.252;2022-09-23T22:35:17;3.42;;;2.63;;
38785;SDS011;24535;45.508;12.252;2022-09-23T22:37:43;4.28;;;2.83;;
38785;SDS011;24535;45.508;12.252;2022-09-23T22:40:25;3.75;;;2.88;;
38785;SDS011;24535;45.508;12.252;2022-09-23T22:42:59;4.22;;;2.60;;
38785;SDS011;24535;45.508;12.252;2022-09-23T22:45:25;6.72;;;2.63;;
38785;SDS011;24535;45.508;12.252;2022-09-23T22:47:50;5.95;;;3.67;;
38785;SDS011;24535;45.508;12.252;2022-09-23T22:50:17;4.55;;;2.58;;
38785;SDS011;24535;45.508;12.252;2022-09-23T22:52:42;4.03;;;3.08;;
38785;SDS011;24535;45.508;12.252;2022-09-23T22:55:08;4.00;;;3.10;;
38785;SDS011;24535;45.508;12.252;2022-09-23T22:57:35;4.63;;;2.88;;
38785;SDS011;24535;45.508;12.252;2022-09-23T23:00:01;6.78;;;3.05;;
38785;SDS011;24535;45.508;12.252;2022-09-23T23:02:30;5.07;;;3.47;;
38785;SDS011;24535;45.508;12.252;2022-09-23T23:04:59;7.00;;;4.25;;
38785;SDS011;24535;45.508;12.252;2022-09-23T23:07:24;5.65;;;4.00;;
38785;SDS011;24535;45.508;12.252;2022-09-23T23:09:53;5.22;;;4.40;;
38785;SDS011;24535;45.508;12.252;2022-09-23T23:12:24;5.60;;;4.85;;
38785;SDS011;24535;45.508;12.252;2022-09-23T23:14:50;5.07;;;3.80;;
38785;SDS011;24535;45.508;12.252;2022-09-23T23:17:15;3.65;;;3.33;;
38785;SDS011;24535;45.508;12.252;2022-09-23T23:19:42;9.45;;;4.55;;
38785;SDS011;24535;45.508;12.252;2022-09-23T23:27:40;7.22;;;4.90;;
38785;SDS011;24535;45.508;12.252;2022-09-23T23:30:05;5.95;;;4.72;;
38785;SDS011;24535;45.508;12.252;2022-09-23T23:32:32;7.53;;;4.88;;
38785;SDS011;24535;45.508;12.252;2022-09-23T23:34:57;7.00;;;4.25;;
38785;SDS011;24535;45.508;12.252;2022-09-23T23:37:23;9.00;;;4.63;;
38785;SDS011;24535;45.508;12.252;2022-09-23T23:39:48;8.15;;;5.90;;
38785;SDS011;24535;45.508;12.252;2022-09-23T23:42:14;7.00;;;5.57;;
38785;SDS011;24535;45.508;12.252;2022-09-23T23:44:39;7.53;;;5.20;;
38785;SDS011;24535;45.508;12.252;2022-09-23T23:47:05;10.02;;;5.30;;
38785;SDS011;24535;45.508;12.252;2022-09-23T23:49:39;6.55;;;5.40;;
38785;SDS011;24535;45.508;12.252;2022-09-23T23:52:05;5.13;;;4.18;;
38785;SDS011;24535;45.508;12.252;2022-09-23T23:54:30;7.97;;;5.75;;
38785;SDS011;24535;45.508;12.252;2022-09-23T23:57:00;7.47;;;4.55;;
